createdAt,value
2022-12-27T00:00:14.228Z,25.90
2022-12-27T00:02:42.581Z,27.25
2022-12-27T00:05:11.716Z,22.98
2022-12-27T00:07:40.365Z,28.13
2022-12-27T00:10:11.437Z,28.27
2022-12-27T00:12:40.348Z,31.02
2022-12-27T00:15:10.267Z,28.83
2022-12-27T00:17:38.452Z,30.30
2022-12-27T00:20:11.578Z,27.73
2022-12-27T00:22:41.789Z,27.10
2022-12-27T00:25:10.792Z,33.60
2022-12-27T00:27:39.716Z,32.13
2022-12-27T00:30:09.082Z,32.15
2022-12-27T00:32:37.621Z,29.05
2022-12-27T00:35:07.369Z,30.33
2022-12-27T00:37:36.603Z,34.13
2022-12-27T00:40:06.505Z,27.38
2022-12-27T00:42:38.355Z,29.52
2022-12-27T00:47:36.938Z,30.40
2022-12-27T00:50:06.605Z,27.38
2022-12-27T00:52:36.315Z,27.92
2022-12-27T00:55:05.903Z,30.05
2022-12-27T00:57:34.475Z,32.60
2022-12-27T01:00:10.134Z,29.05
2022-12-27T01:02:39.194Z,31.95
2022-12-27T01:05:10.656Z,28.77
2022-12-27T01:07:39.099Z,32.42
2022-12-27T01:10:10.185Z,27.50
2022-12-27T01:12:39.175Z,26.83
2022-12-27T01:15:11.045Z,27.58
2022-12-27T01:17:39.998Z,29.55
2022-12-27T01:20:09.477Z,31.48
2022-12-27T01:22:38.205Z,31.52
2022-12-27T01:25:07.647Z,28.80
2022-12-27T01:27:36.153Z,29.60
2022-12-27T01:30:10.435Z,28.85
2022-12-27T01:32:39.549Z,29.02
2022-12-27T01:35:09.013Z,26.15
2022-12-27T01:37:37.724Z,26.15
2022-12-27T01:40:07.247Z,24.90
2022-12-27T01:42:54.229Z,29.90
2022-12-27T01:45:40.889Z,27.70
2022-12-27T01:48:22.637Z,23.85
2022-12-27T01:53:39.913Z,25.85
2022-12-27T01:56:30.534Z,24.90
2022-12-27T01:59:06.216Z,26.35
2022-12-27T02:01:44.924Z,28.17
2022-12-27T02:04:19.520Z,23.45
2022-12-27T02:06:48.695Z,27.10
2022-12-27T02:09:22.838Z,26.83
2022-12-27T02:11:57.339Z,26.15
2022-12-27T02:14:34.919Z,24.35
2022-12-27T02:17:12.707Z,24.58
2022-12-27T02:19:42.711Z,35.65
2022-12-27T02:23:11.384Z,25.20
2022-12-27T02:25:55.625Z,24.85
2022-12-27T02:28:49.987Z,22.90
2022-12-27T02:31:59.191Z,26.02
2022-12-27T02:34:38.556Z,27.92
2022-12-27T02:37:13.189Z,27.15
2022-12-27T02:39:48.726Z,24.90
2022-12-27T02:42:38.477Z,24.23
2022-12-27T02:45:38.981Z,26.65
2022-12-27T02:48:31.998Z,26.60
2022-12-27T02:51:36.788Z,25.50
2022-12-27T02:54:30.507Z,30.23
2022-12-27T02:57:33.777Z,28.08
2022-12-27T03:04:43.278Z,26.70
2022-12-27T03:07:39.769Z,30.65
2022-12-27T03:10:54.584Z,31.33
2022-12-27T03:14:24.608Z,35.08
2022-12-27T03:17:08.799Z,27.00
2022-12-27T03:20:06.194Z,30.70
2022-12-27T03:22:58.239Z,31.88
2022-12-27T03:25:28.932Z,28.08
2022-12-27T03:28:34.596Z,30.05
2022-12-27T03:31:42.580Z,30.92
2022-12-27T03:34:32.582Z,32.45
2022-12-27T03:37:26.171Z,33.88
2022-12-27T03:40:23.087Z,33.05
2022-12-27T03:43:14.465Z,32.17
2022-12-27T03:46:34.258Z,33.00
2022-12-27T03:49:39.608Z,35.85
2022-12-27T03:52:26.394Z,36.67
2022-12-27T03:54:56.149Z,38.92
2022-12-27T03:57:31.833Z,34.55
2022-12-27T04:00:00.803Z,33.05
2022-12-27T04:02:30.035Z,30.75
2022-12-27T04:04:59.336Z,33.70
2022-12-27T04:07:28.812Z,37.20
2022-12-27T04:10:16.066Z,34.25
2022-12-27T04:13:03.667Z,35.38
2022-12-27T04:15:52.181Z,31.52
2022-12-27T04:18:39.568Z,35.15
2022-12-27T04:21:26.857Z,31.60
2022-12-27T04:24:14.988Z,28.00
2022-12-27T04:27:02.197Z,32.17
2022-12-27T04:29:49.161Z,24.45
2022-12-27T04:32:36.555Z,22.77
2022-12-27T04:35:06.221Z,19.02
2022-12-27T04:37:34.565Z,20.60
2022-12-27T04:40:21.615Z,18.25
2022-12-27T04:43:10.292Z,12.75
2022-12-27T04:45:57.089Z,15.43
2022-12-27T04:48:46.720Z,17.73
2022-12-27T04:51:34.470Z,13.70
2022-12-27T04:54:21.753Z,14.02
2022-12-27T04:56:50.972Z,14.98
2022-12-27T04:59:38.707Z,15.88
2022-12-27T05:02:07.908Z,16.90
2022-12-27T05:04:38.958Z,15.07
2022-12-27T05:07:49.281Z,15.50
2022-12-27T05:10:36.591Z,14.43
2022-12-27T05:13:23.875Z,18.13
2022-12-27T05:15:52.421Z,13.52
2022-12-27T05:18:20.745Z,16.60
2022-12-27T05:20:49.576Z,13.57
2022-12-27T05:23:37.374Z,13.65
2022-12-27T05:26:06.418Z,13.32
2022-12-27T05:28:34.950Z,17.02
2022-12-27T05:31:03.916Z,14.15
2022-12-27T05:33:32.870Z,13.68
2022-12-27T05:36:01.523Z,15.60
2022-12-27T05:38:30.189Z,14.90
2022-12-27T05:41:00.841Z,15.57
2022-12-27T05:43:30.555Z,19.67
2022-12-27T05:46:13.000Z,14.20
2022-12-27T05:48:42.363Z,15.23
2022-12-27T05:51:19.709Z,21.75
2022-12-27T05:53:50.060Z,14.30
2022-12-27T05:56:21.256Z,19.98
2022-12-27T05:58:53.852Z,17.25
2022-12-27T06:01:23.292Z,22.27
2022-12-27T06:03:52.180Z,18.35
2022-12-27T06:06:21.063Z,20.75
2022-12-27T06:08:49.845Z,16.02
2022-12-27T06:11:19.739Z,17.15
2022-12-27T06:13:54.425Z,15.30
2022-12-27T06:16:23.387Z,17.13
2022-12-27T06:18:51.568Z,13.40
2022-12-27T06:21:21.894Z,21.00
2022-12-27T06:23:50.893Z,16.92
2022-12-27T06:26:24.820Z,17.23
2022-12-27T06:28:55.154Z,15.55
2022-12-27T06:31:24.503Z,20.80
2022-12-27T06:33:53.376Z,18.63
2022-12-27T06:36:26.552Z,19.05
2022-12-27T06:38:55.133Z,13.57
2022-12-27T06:41:24.348Z,14.25
2022-12-27T06:43:58.790Z,11.30
2022-12-27T06:46:27.546Z,19.15
2022-12-27T06:48:56.020Z,13.70
2022-12-27T06:51:24.298Z,17.40
2022-12-27T06:53:52.579Z,14.38
2022-12-27T06:56:23.843Z,16.98
2022-12-27T06:58:52.803Z,13.40
2022-12-27T07:01:28.037Z,18.98
2022-12-27T07:03:59.907Z,11.48
2022-12-27T07:06:31.042Z,17.92
2022-12-27T07:09:01.790Z,13.75
2022-12-27T07:11:32.705Z,14.82
2022-12-27T07:14:01.117Z,14.93
2022-12-27T07:16:31.212Z,21.80
2022-12-27T07:19:00.461Z,13.10
2022-12-27T07:21:30.419Z,24.02
2022-12-27T07:23:59.031Z,16.67
2022-12-27T07:26:30.387Z,20.48
2022-12-27T07:29:01.648Z,18.40
2022-12-27T07:31:32.968Z,14.20
2022-12-27T07:34:04.379Z,17.27
2022-12-27T07:36:38.393Z,21.63
2022-12-27T07:39:08.000Z,19.75
2022-12-27T07:41:37.952Z,18.98
2022-12-27T07:44:07.548Z,18.77
2022-12-27T07:46:37.590Z,42.88
2022-12-27T07:49:06.118Z,16.85
2022-12-27T07:51:34.532Z,20.42
2022-12-27T07:54:05.912Z,20.17
2022-12-27T07:56:34.647Z,17.35
2022-12-27T07:59:03.360Z,20.92
2022-12-27T08:01:55.190Z,18.45
2022-12-27T08:04:24.325Z,23.05
2022-12-27T08:06:52.783Z,24.02
2022-12-27T08:09:30.532Z,35.65
2022-12-27T08:11:58.751Z,40.83
2022-12-27T08:14:26.998Z,34.72
2022-12-27T08:17:02.675Z,19.00
2022-12-27T08:19:31.033Z,21.35
2022-12-27T08:21:59.354Z,32.88
2022-12-27T08:24:28.250Z,32.95
2022-12-27T08:26:57.164Z,24.63
2022-12-27T08:29:27.172Z,24.25
2022-12-27T08:31:55.797Z,18.38
2022-12-27T08:34:24.269Z,30.48
2022-12-27T08:36:55.854Z,39.03
2022-12-27T08:39:24.997Z,30.42
2022-12-27T08:41:54.416Z,27.48
2022-12-27T08:44:23.898Z,43.08
2022-12-27T08:46:52.435Z,28.65
2022-12-27T08:49:21.023Z,23.65
2022-12-27T08:51:49.890Z,26.65
2022-12-27T08:54:18.353Z,38.13
2022-12-27T08:56:47.042Z,21.17
2022-12-27T08:59:15.428Z,29.98
2022-12-27T09:01:45.323Z,17.83
2022-12-27T09:04:14.291Z,27.45
2022-12-27T09:06:42.768Z,25.13
2022-12-27T09:09:11.298Z,15.73
2022-12-27T09:11:40.526Z,16.90
2022-12-27T09:14:12.781Z,20.40
2022-12-27T09:16:41.963Z,16.25
2022-12-27T09:19:11.427Z,17.55
2022-12-27T09:21:42.287Z,20.08
2022-12-27T09:24:15.383Z,12.48
2022-12-27T09:26:44.442Z,21.17
2022-12-27T09:29:13.410Z,15.60
2022-12-27T09:31:41.953Z,20.75
2022-12-27T09:34:12.061Z,25.05
2022-12-27T09:36:41.525Z,18.02
2022-12-27T09:39:13.127Z,17.80
2022-12-27T09:45:20.718Z,16.50
2022-12-27T09:48:33.420Z,20.48
2022-12-27T09:51:21.757Z,18.15
2022-12-27T09:54:11.617Z,19.08
2022-12-27T09:57:17.743Z,15.98
2022-12-27T09:59:44.530Z,15.15
2022-12-27T10:02:39.531Z,15.40
2022-12-27T10:05:22.372Z,12.27
2022-12-27T10:08:10.235Z,12.35
2022-12-27T10:10:58.202Z,20.50
2022-12-27T10:13:42.062Z,22.17
2022-12-27T10:16:34.651Z,15.30
2022-12-27T10:19:23.019Z,13.35
2022-12-27T10:22:33.907Z,20.67
2022-12-27T10:25:12.117Z,20.52
2022-12-27T10:27:42.047Z,19.60
2022-12-27T10:30:20.680Z,16.58
2022-12-27T10:32:50.038Z,16.05
2022-12-27T10:35:21.632Z,16.85
2022-12-27T10:37:50.980Z,20.60
2022-12-27T10:40:29.810Z,19.77
2022-12-27T10:43:09.032Z,33.45
2022-12-27T10:45:43.163Z,20.67
2022-12-27T10:48:28.912Z,14.80
2022-12-27T10:51:09.762Z,17.27
2022-12-27T10:54:10.449Z,17.88
2022-12-27T10:56:42.275Z,29.85
2022-12-27T10:59:19.088Z,16.17
2022-12-27T11:02:19.106Z,14.13
2022-12-27T11:05:01.733Z,16.95
2022-12-27T11:07:35.612Z,26.20
2022-12-27T11:10:21.777Z,25.77
2022-12-27T11:13:02.171Z,25.85
2022-12-27T11:15:42.484Z,21.08
2022-12-27T11:18:20.291Z,21.38
2022-12-27T11:20:58.873Z,16.02
2022-12-27T11:23:42.743Z,25.27
2022-12-27T11:26:24.942Z,20.27
2022-12-27T11:29:03.520Z,19.92
2022-12-27T11:31:44.875Z,20.75
2022-12-27T11:34:26.805Z,24.60
2022-12-27T11:39:45.804Z,23.75
2022-12-27T11:42:47.767Z,28.63
2022-12-27T11:45:26.638Z,23.08
2022-12-27T11:48:31.689Z,17.83
2022-12-27T11:51:24.598Z,19.77
2022-12-27T11:54:30.324Z,20.83
2022-12-27T11:57:38.742Z,17.80
2022-12-27T12:00:25.337Z,20.00
2022-12-27T12:03:54.115Z,15.63
2022-12-27T12:06:52.481Z,15.48
2022-12-27T12:09:30.262Z,15.93
2022-12-27T12:12:46.387Z,12.93
2022-12-27T12:15:32.133Z,14.77
2022-12-27T12:18:51.101Z,15.90
2022-12-27T12:21:37.860Z,19.17
2022-12-27T12:24:50.962Z,15.63
2022-12-27T12:27:31.656Z,15.52
2022-12-27T12:30:37.756Z,17.00
2022-12-27T12:33:16.160Z,18.08
2022-12-27T12:36:22.658Z,14.60
2022-12-27T12:39:39.073Z,15.75
2022-12-27T12:42:41.458Z,20.90
2022-12-27T12:45:31.508Z,15.43
2022-12-27T12:48:51.556Z,17.98
2022-12-27T12:52:01.052Z,16.52
2022-12-27T12:54:54.802Z,12.35
2022-12-27T12:57:35.206Z,15.77
2022-12-27T13:00:49.116Z,15.23
2022-12-27T13:03:48.555Z,22.65
2022-12-27T13:06:56.595Z,21.50
2022-12-27T13:10:21.769Z,16.85
2022-12-27T13:13:10.527Z,15.48
2022-12-27T13:16:05.096Z,18.27
2022-12-27T13:19:14.699Z,12.68
2022-12-27T13:22:16.385Z,12.48
2022-12-27T13:25:07.587Z,13.68
2022-12-27T13:28:02.194Z,16.27
2022-12-27T13:30:55.250Z,17.17
2022-12-27T13:34:12.377Z,21.02
2022-12-27T13:37:14.597Z,15.13
2022-12-27T13:40:26.128Z,15.90
2022-12-27T13:43:43.534Z,18.48
2022-12-27T13:46:47.191Z,15.15
2022-12-27T13:49:34.537Z,19.23
2022-12-27T13:52:57.581Z,21.55
2022-12-27T13:55:52.719Z,25.85
2022-12-27T13:59:27.810Z,26.73
2022-12-27T14:02:19.684Z,18.35
2022-12-27T14:07:56.554Z,18.92
2022-12-27T14:10:50.152Z,25.10
2022-12-27T14:13:43.928Z,18.10
2022-12-27T14:16:57.549Z,18.15
2022-12-27T14:20:24.312Z,21.17
2022-12-27T14:22:58.425Z,18.15
2022-12-27T14:26:03.814Z,20.58
2022-12-27T14:29:12.387Z,18.45
2022-12-27T14:32:00.423Z,14.15
2022-12-27T14:35:27.142Z,23.10
2022-12-27T14:38:45.358Z,25.42
2022-12-27T14:41:59.907Z,21.27
2022-12-27T14:44:55.695Z,26.48
2022-12-27T14:48:25.621Z,19.75
2022-12-27T14:51:50.455Z,18.58
2022-12-27T14:54:19.184Z,20.13
2022-12-27T15:45:50.998Z,30.83
2022-12-27T15:48:58.794Z,36.08
2022-12-27T15:51:52.773Z,32.38
2022-12-27T15:54:50.382Z,40.53
2022-12-27T15:57:37.492Z,35.05
2022-12-27T16:00:18.393Z,27.10
2022-12-27T16:02:51.916Z,21.42
2022-12-27T16:05:22.923Z,25.10
2022-12-27T16:07:59.969Z,18.77
2022-12-27T16:10:34.499Z,29.80
2022-12-27T16:13:11.215Z,26.45
2022-12-27T16:15:50.368Z,27.50
2022-12-27T16:18:24.730Z,29.00
2022-12-27T16:21:18.637Z,21.73
2022-12-27T16:23:46.844Z,26.20
2022-12-27T16:26:27.516Z,24.05
2022-12-27T16:29:17.515Z,17.40
2022-12-27T16:31:50.623Z,26.88
2022-12-27T16:34:31.985Z,23.90
2022-12-27T16:37:01.297Z,18.88
2022-12-27T16:40:01.754Z,25.42
2022-12-27T16:43:11.144Z,28.85
2022-12-27T16:45:59.514Z,49.42
2022-12-27T16:48:49.153Z,48.00
2022-12-27T16:51:51.751Z,40.47
2022-12-27T16:54:57.419Z,36.88
2022-12-27T16:57:25.595Z,31.10
2022-12-27T17:00:13.724Z,26.05
2022-12-27T17:02:46.667Z,26.25
2022-12-27T17:05:41.910Z,29.35
2022-12-27T17:08:24.742Z,23.58
2022-12-27T17:10:52.725Z,26.65
2022-12-27T17:13:55.410Z,28.83
2022-12-27T17:16:29.738Z,29.40
2022-12-27T17:19:04.735Z,23.45
2022-12-27T17:21:41.337Z,31.17
2022-12-27T17:24:21.280Z,28.08
2022-12-27T17:27:30.137Z,27.38
2022-12-27T17:30:05.622Z,29.13
2022-12-27T17:33:04.317Z,36.45
2022-12-27T17:36:22.091Z,37.83
2022-12-27T17:38:55.447Z,32.75
2022-12-27T17:41:57.759Z,32.75
2022-12-27T17:44:47.485Z,39.88
2022-12-27T17:47:37.423Z,31.50
2022-12-27T17:50:14.081Z,29.80
2022-12-27T17:53:01.118Z,24.05
2022-12-27T17:56:07.656Z,41.40
2022-12-27T17:58:36.299Z,30.17
2022-12-27T18:01:04.808Z,27.25
2022-12-27T18:03:45.108Z,38.60
2022-12-27T18:06:22.571Z,38.88
2022-12-27T18:08:57.711Z,23.73
2022-12-27T18:11:29.292Z,32.78
2022-12-27T18:14:00.878Z,24.40
2022-12-27T18:16:39.335Z,31.50
2022-12-27T18:19:07.955Z,24.27
2022-12-27T18:21:39.100Z,30.48
2022-12-27T18:24:40.116Z,23.10
2022-12-27T18:27:20.375Z,25.92
2022-12-27T18:29:49.989Z,21.42
2022-12-27T18:32:19.820Z,35.38
2022-12-27T18:35:00.841Z,21.50
2022-12-27T18:37:31.261Z,23.13
2022-12-27T18:40:05.004Z,16.63
2022-12-27T18:42:40.139Z,23.23
2022-12-27T18:45:34.927Z,24.40
2022-12-27T18:48:12.192Z,25.30
2022-12-27T18:50:53.340Z,31.65
2022-12-27T18:53:32.550Z,36.80
2022-12-27T18:56:06.131Z,21.85
2022-12-27T18:58:35.847Z,26.08
2022-12-27T19:01:20.261Z,23.00
2022-12-27T19:04:20.326Z,23.77
2022-12-27T19:07:15.054Z,26.27
2022-12-27T19:09:53.634Z,30.02
2022-12-27T19:12:25.489Z,27.80
2022-12-27T19:14:55.186Z,28.45
2022-12-27T19:17:32.502Z,24.17
2022-12-27T19:20:04.792Z,24.40
2022-12-27T19:22:47.887Z,22.63
2022-12-27T19:25:24.483Z,34.85
2022-12-27T19:28:11.180Z,32.35
2022-12-27T19:30:51.563Z,34.15
2022-12-27T19:33:32.916Z,40.45
2022-12-27T19:36:07.490Z,31.25
2022-12-27T19:38:36.722Z,28.30
2022-12-27T19:41:06.597Z,34.08
2022-12-27T19:43:46.929Z,38.58
2022-12-27T19:46:16.178Z,42.85
2022-12-27T19:49:01.066Z,24.30
2022-12-27T19:51:37.815Z,33.03
2022-12-27T19:54:20.937Z,29.42
2022-12-27T19:56:50.543Z,31.20
2022-12-27T19:59:25.256Z,31.17
2022-12-27T20:01:54.649Z,22.02
2022-12-27T20:04:24.133Z,36.92
2022-12-27T20:06:54.772Z,31.30
2022-12-27T20:09:23.626Z,39.75
2022-12-27T20:11:52.410Z,29.63
2022-12-27T20:14:20.984Z,46.28
2022-12-27T20:16:49.564Z,32.88
2022-12-27T20:19:18.432Z,34.60
2022-12-27T20:21:47.467Z,37.25
2022-12-27T20:24:16.155Z,32.28
2022-12-27T20:26:44.959Z,26.30
2022-12-27T20:29:15.764Z,34.47
2022-12-27T20:31:48.966Z,42.50
2022-12-27T20:34:21.042Z,45.47
2022-12-27T20:36:49.992Z,25.58
2022-12-27T20:39:18.625Z,39.55
2022-12-27T20:41:47.445Z,34.72
2022-12-27T20:44:19.222Z,29.25
2022-12-27T20:46:48.248Z,30.23
2022-12-27T20:49:18.257Z,35.78
2022-12-27T20:51:46.743Z,36.30
2022-12-27T20:54:17.161Z,33.03
2022-12-27T20:56:45.552Z,29.48
2022-12-27T20:59:17.393Z,33.78
2022-12-27T21:01:49.287Z,30.83
2022-12-27T21:04:21.298Z,47.80
2022-12-27T21:06:51.232Z,26.70
2022-12-27T21:09:20.136Z,36.15
2022-12-27T21:11:55.434Z,24.83
2022-12-27T21:14:24.960Z,29.80
2022-12-27T21:16:54.850Z,27.58
2022-12-27T21:19:23.696Z,43.60
2022-12-27T21:21:53.192Z,27.33
2022-12-27T21:24:22.709Z,31.55
2022-12-27T21:26:56.229Z,25.13
2022-12-27T21:29:26.259Z,37.72
2022-12-27T21:31:54.701Z,23.35
2022-12-27T21:34:23.348Z,38.00
2022-12-27T21:36:55.154Z,22.83
2022-12-27T21:39:23.571Z,37.17
2022-12-27T21:41:51.832Z,27.88
2022-12-27T21:44:25.456Z,40.60
2022-12-27T21:46:53.806Z,25.67
2022-12-27T21:49:23.151Z,37.97
2022-12-27T21:51:52.148Z,26.20
2022-12-27T21:54:22.596Z,38.05
2022-12-27T21:56:51.069Z,24.85
2022-12-27T21:59:19.605Z,39.40
2022-12-27T22:01:50.818Z,28.92
2022-12-27T22:04:22.271Z,27.58
2022-12-27T22:06:51.049Z,27.92
2022-12-27T22:09:20.097Z,35.95
2022-12-27T22:11:49.104Z,28.85
2022-12-27T22:14:21.838Z,27.52
2022-12-27T22:16:53.595Z,20.63
2022-12-27T22:19:26.323Z,28.00
2022-12-27T22:21:58.282Z,18.25
2022-12-27T22:24:26.861Z,36.03
2022-12-27T22:26:55.325Z,22.92
2022-12-27T22:29:25.078Z,34.28
2022-12-27T22:31:53.428Z,20.50
2022-12-27T22:34:22.304Z,39.33
2022-12-27T22:36:52.359Z,23.13
2022-12-27T22:39:20.871Z,31.88
2022-12-27T22:41:49.121Z,19.55
2022-12-27T22:44:17.459Z,30.77
2022-12-27T22:47:15.652Z,26.77
2022-12-27T22:49:35.179Z,26.13
2022-12-27T22:52:03.759Z,20.45
2022-12-27T22:55:05.032Z,26.88
2022-12-27T22:57:20.122Z,29.67
2022-12-27T22:59:48.251Z,23.38
2022-12-27T23:02:16.745Z,26.50
2022-12-27T23:04:47.423Z,21.65
2022-12-27T23:07:20.197Z,31.73
2022-12-27T23:09:48.951Z,23.88
2022-12-27T23:12:17.017Z,28.77
2022-12-27T23:14:45.116Z,25.30
2022-12-27T23:17:13.989Z,24.45
2022-12-27T23:19:42.986Z,26.80
2022-12-27T23:22:11.032Z,26.00
2022-12-27T23:24:39.196Z,20.75
2022-12-27T23:27:07.182Z,24.50
2022-12-27T23:29:35.298Z,29.63
2022-12-27T23:32:03.559Z,20.90
2022-12-27T23:34:31.948Z,24.52
2022-12-27T23:37:01.471Z,24.67
2022-12-27T23:39:30.056Z,25.45
2022-12-27T23:41:58.141Z,21.40
2022-12-27T23:44:33.320Z,23.60
2022-12-27T23:47:07.616Z,21.73
2022-12-27T23:49:35.818Z,24.52
2022-12-27T23:52:04.577Z,24.15
2022-12-27T23:54:32.662Z,18.00
2022-12-27T23:57:20.363Z,17.73
2022-12-27T23:59:49.636Z,18.80
